Perry, Pennsylvania
Current Conditions -  °F | °C
As of 12:54 PM on Sunday 21 Dec 2014 (Local Time) from KRDG Reporting Station
Overcast Overcast  
Wind Chill: 27°   Ceiling: 2800
Heat Index: 35°   Visibility: 10mi
Dew Point: 22°   Wind: 10mph
Humidity: 59%   Direction: 320°NW
Pressure: 30.31"   Gusts: NA
Location:  40.5494°N, 75.999°W
Report Text: KRDG 211754Z AUTO 32009KT 10SM OVC028 02/M06 A3031 RMK AO2 SLP271 T00171056 10017 21017 58009
Loading
Personal Weather Stations






























Interactive Weather Map New forecast layout! Learn more

10-Day Weather Forecast

Advertisements
Track Severe Weather on mobile